Time;durP1;ratioP1;P1;durP2;ratioP2;P2;SDS_P1;SDS_P2;PMS_P1;PMS_P2;Temp;Humidity;BMP_temperature;BMP_pressure;BME280_temperature;BME280_humidity;BME280_pressure;Samples;Min_cycle;Max_cycle;Signal;HPM_P1;HPM_P2
2023/12/06 00:00:54;;;;;;;401.33;379.50;;;0.40;99.90;;;;;;5013816;28;20050;-75
2023/12/06 00:03:20;;;;;;;442.55;418.50;;;0.40;99.90;;;;;;5011004;28;20536;-76
2023/12/06 00:05:45;;;;;;;446.53;422.17;;;0.40;99.90;;;;;;4994345;28;20049;-75
2023/12/06 00:08:11;;;;;;;475.87;449.80;;;0.40;99.90;;;;;;4984717;28;20045;-76
2023/12/06 00:10:37;;;;;;;478.03;452.73;;;0.40;99.90;;;;;;4996551;28;20487;-75
2023/12/06 00:13:02;;;;;;;394.03;372.33;;;0.50;99.90;;;;;;5012314;28;20033;-76
2023/12/06 00:15:28;;;;;;;458.20;433.80;;;0.50;99.90;;;;;;5012192;28;20037;-75
2023/12/06 00:17:54;;;;;;;465.20;439.87;;;0.50;99.90;;;;;;5016293;28;20139;-76
2023/12/06 00:20:20;;;;;;;415.23;392.97;;;0.50;99.90;;;;;;5000530;28;20034;-76
2023/12/06 00:22:45;;;;;;;463.67;437.63;;;0.50;99.90;;;;;;5019191;28;20050;-76
2023/12/06 00:25:11;;;;;;;535.50;505.73;;;0.50;99.90;;;;;;4995514;28;20040;-76
2023/12/06 00:27:38;;;;;;;506.50;478.87;;;0.50;99.90;;;;;;4997116;28;20041;-76
2023/12/06 00:30:04;;;;;;;497.58;470.73;;;0.60;99.90;;;;;;4998201;28;20109;-76
2023/12/06 00:32:30;;;;;;;465.33;440.83;;;0.60;99.90;;;;;;5012261;28;20042;-76
2023/12/06 00:34:56;;;;;;;502.37;474.90;;;0.60;99.90;;;;;;4995867;28;20100;-76
2023/12/06 00:37:21;;;;;;;492.47;465.23;;;0.60;99.90;;;;;;5012203;28;20112;-76
2023/12/06 00:39:47;;;;;;;493.73;467.20;;;0.60;99.90;;;;;;5019035;28;20045;-75
2023/12/06 00:42:13;;;;;;;475.23;450.27;;;0.60;99.90;;;;;;5009558;28;20046;-76
2023/12/06 00:44:38;;;;;;;442.40;417.90;;;0.60;99.90;;;;;;4995636;28;20061;-75
2023/12/06 00:47:04;;;;;;;456.27;431.83;;;0.60;99.90;;;;;;5012068;28;20060;-76
2023/12/06 00:49:30;;;;;;;496.60;469.57;;;0.70;99.90;;;;;;4995170;28;20030;-75
2023/12/06 00:51:57;;;;;;;482.53;455.57;;;0.70;99.90;;;;;;5015266;28;20111;-75
2023/12/06 00:54:23;;;;;;;440.75;417.02;;;0.70;99.90;;;;;;5015741;28;20324;-76
2023/12/06 00:56:48;;;;;;;372.63;352.90;;;0.70;99.90;;;;;;5011744;28;20100;-76
2023/12/06 00:59:14;;;;;;;446.97;424.23;;;0.70;99.90;;;;;;5011993;28;20049;-76
2023/12/06 01:01:39;;;;;;;468.77;443.90;;;0.70;99.90;;;;;;5011806;28;20044;-75
2023/12/06 01:04:05;;;;;;;458.00;434.60;;;0.70;99.90;;;;;;5011495;28;20387;-75
2023/12/06 01:06:31;;;;;;;485.80;460.50;;;0.70;99.90;;;;;;5001151;28;20045;-75
2023/12/06 01:08:57;;;;;;;491.63;465.80;;;0.70;99.90;;;;;;5010737;28;20037;-75
2023/12/06 01:11:23;;;;;;;521.20;493.73;;;0.70;99.90;;;;;;4995270;28;20037;-76
2023/12/06 01:13:49;;;;;;;395.52;374.52;;;0.70;99.90;;;;;;5010645;28;20049;-75
2023/12/06 01:16:14;;;;;;;478.33;454.10;;;0.80;99.90;;;;;;4994913;28;20041;-75
2023/12/06 01:18:40;;;;;;;440.50;417.23;;;0.80;99.90;;;;;;5010576;28;20410;-76
2023/12/06 01:21:06;;;;;;;489.77;463.50;;;0.80;99.90;;;;;;5011279;28;20468;-75
2023/12/06 01:23:32;;;;;;;499.48;472.35;;;0.80;99.90;;;;;;5004409;28;20089;-75
2023/12/06 01:25:57;;;;;;;400.43;380.30;;;0.80;99.90;;;;;;5017598;28;20081;-76
2023/12/06 01:28:23;;;;;;;499.70;473.50;;;0.80;99.90;;;;;;5009032;28;20050;-75
2023/12/06 01:30:49;;;;;;;503.77;477.00;;;0.80;99.90;;;;;;5014940;28;20037;-76
2023/12/06 01:33:14;;;;;;;525.17;496.77;;;0.80;99.90;;;;;;5017406;28;20073;-76
2023/12/06 01:35:40;;;;;;;406.07;385.77;;;0.80;99.90;;;;;;5010839;28;20038;-76
2023/12/06 01:38:06;;;;;;;545.57;516.27;;;0.80;99.90;;;;;;5011054;28;20046;-76
2023/12/06 01:40:35;;;;;;;463.73;439.40;;;0.80;99.90;;;;;;4993958;28;20462;-76
2023/12/06 01:43:01;;;;;;;466.42;441.88;;;0.80;99.90;;;;;;5016564;28;20386;-76
2023/12/06 01:45:27;;;;;;;460.90;437.13;;;0.80;99.90;;;;;;5011122;28;20049;-76
2023/12/06 01:47:54;;;;;;;526.53;498.20;;;0.80;99.90;;;;;;4994315;28;20038;-75
2023/12/06 01:50:21;;;;;;;514.10;486.33;;;0.80;99.90;;;;;;5019210;28;20077;-76
2023/12/06 01:52:47;;;;;;;544.03;514.78;;;0.80;99.90;;;;;;5015211;28;20109;-75
2023/12/06 01:55:14;;;;;;;549.15;519.65;;;0.90;99.90;;;;;;5011286;28;20157;-75
2023/12/06 01:57:41;;;;;;;527.83;498.98;;;0.80;99.90;;;;;;5010326;28;20046;-76
2023/12/06 02:00:07;;;;;;;449.67;426.38;;;0.80;99.90;;;;;;5015700;28;20045;-75
2023/12/06 02:02:33;;;;;;;537.88;508.90;;;0.80;99.90;;;;;;4998515;28;20143;-75
2023/12/06 02:05:00;;;;;;;527.88;499.73;;;0.80;99.90;;;;;;4993698;28;20064;-75
2023/12/06 02:07:28;;;;;;;494.27;467.67;;;0.80;99.90;;;;;;5009529;28;20139;-75
2023/12/06 02:09:54;;;;;;;550.25;521.33;;;0.80;99.90;;;;;;4983801;28;20148;-76
2023/12/06 02:12:20;;;;;;;507.23;481.13;;;0.80;99.90;;;;;;4994321;28;20121;-75
2023/12/06 02:14:46;;;;;;;530.20;501.63;;;0.80;99.90;;;;;;5017529;28;20049;-75
2023/12/06 02:17:12;;;;;;;470.47;446.30;;;0.80;99.90;;;;;;5015150;28;20042;-75
2023/12/06 02:19:39;;;;;;;527.80;499.40;;;0.80;99.90;;;;;;4994154;28;20132;-75
2023/12/06 02:22:06;;;;;;;536.22;507.85;;;0.80;99.90;;;;;;5010515;28;20037;-75
2023/12/06 02:24:33;;;;;;;545.13;515.33;;;0.80;99.90;;;;;;5010743;28;20077;-75
2023/12/06 02:26:59;;;;;;;533.20;504.70;;;0.80;99.90;;;;;;4993284;28;20058;-75
2023/12/06 02:29:25;;;;;;;548.63;518.93;;;0.80;99.90;;;;;;4993783;28;20042;-75
2023/12/06 02:31:51;;;;;;;523.00;495.20;;;0.80;99.90;;;;;;5010108;28;20490;-75
2023/12/06 02:34:24;;;;;;;513.88;486.17;;;0.80;99.90;;;;;;4999863;28;20105;-75
2023/12/06 02:36:55;;;;;;;531.88;504.02;;;0.80;99.90;;;;;;5010240;28;20044;-75
2023/12/06 02:39:21;;;;;;;522.53;495.85;;;0.90;99.90;;;;;;5010426;28;20049;-75
2023/12/06 02:41:47;;;;;;;532.67;504.10;;;0.90;99.90;;;;;;5010674;28;20529;-76
2023/12/06 02:44:13;;;;;;;487.50;461.27;;;0.90;99.90;;;;;;5004784;28;20494;-75
2023/12/06 02:46:38;;;;;;;577.40;546.63;;;0.90;99.90;;;;;;5010057;28;20085;-75
2023/12/06 02:49:04;;;;;;;537.63;508.63;;;0.90;99.90;;;;;;4994421;28;20034;-75
2023/12/06 02:51:30;;;;;;;553.13;522.93;;;1.00;99.90;;;;;;5009970;28;20283;-75
2023/12/06 02:53:56;;;;;;;589.63;557.00;;;0.90;99.90;;;;;;4996756;28;20050;-75
2023/12/06 02:56:21;;;;;;;608.33;573.87;;;1.00;99.90;;;;;;5007407;28;20125;-75
2023/12/06 02:58:47;;;;;;;577.20;545.83;;;1.00;99.90;;;;;;4994059;28;20041;-75
2023/12/06 03:01:13;;;;;;;590.57;558.30;;;1.00;99.90;;;;;;5009710;28;20037;-75
2023/12/06 03:03:38;;;;;;;534.10;505.00;;;1.00;99.90;;;;;;5011525;28;20081;-75
2023/12/06 03:06:04;;;;;;;535.33;506.43;;;1.00;99.90;;;;;;5013130;28;20564;-75
2023/12/06 03:08:30;;;;;;;553.23;523.90;;;1.10;99.90;;;;;;5014494;28;20077;-75
2023/12/06 03:10:55;;;;;;;580.33;548.37;;;1.10;99.90;;;;;;4996082;28;20049;-75
2023/12/06 03:13:21;;;;;;;484.20;459.27;;;1.10;99.90;;;;;;4990614;28;20045;-75
2023/12/06 03:15:47;;;;;;;616.90;582.33;;;1.10;99.90;;;;;;5009890;28;20046;-75
2023/12/06 03:18:12;;;;;;;533.07;503.07;;;1.20;99.90;;;;;;5013327;28;20033;-75
2023/12/06 03:20:38;;;;;;;564.53;535.23;;;1.20;99.90;;;;;;5012104;28;20544;-74
2023/12/06 03:23:04;;;;;;;536.63;509.10;;;1.20;99.90;;;;;;5012789;28;20034;-75
2023/12/06 03:25:29;;;;;;;543.53;515.47;;;1.20;99.90;;;;;;5011406;28;20062;-75
2023/12/06 03:27:56;;;;;;;584.73;553.50;;;1.30;99.90;;;;;;5011538;28;20052;-75
2023/12/06 03:30:23;;;;;;;548.78;519.70;;;1.30;99.90;;;;;;5010824;28;20038;-75
2023/12/06 03:32:49;;;;;;;598.22;567.05;;;1.30;99.90;;;;;;5012102;28;20052;-75
2023/12/06 03:35:15;;;;;;;498.27;473.23;;;1.30;99.90;;;;;;5016913;28;20124;-75
2023/12/06 03:37:40;;;;;;;502.43;475.37;;;1.30;99.90;;;;;;4994115;28;20288;-75
2023/12/06 03:40:07;;;;;;;499.83;474.07;;;1.30;99.90;;;;;;5013276;28;20103;-75
2023/12/06 03:42:32;;;;;;;576.67;546.10;;;1.40;99.90;;;;;;5017584;28;20057;-75
2023/12/06 03:44:58;;;;;;;484.43;459.67;;;1.40;99.90;;;;;;5008698;28;20422;-75
2023/12/06 03:47:24;;;;;;;568.45;538.42;;;1.40;99.90;;;;;;5010386;28;20045;-75
2023/12/06 03:49:50;;;;;;;652.70;616.13;;;1.40;99.90;;;;;;5015439;28;20106;-75
2023/12/06 03:52:15;;;;;;;629.30;592.97;;;1.40;99.90;;;;;;5016677;28;20092;-75
2023/12/06 03:54:41;;;;;;;625.97;591.07;;;1.40;99.90;;;;;;4996336;28;20065;-75
2023/12/06 03:57:07;;;;;;;670.90;632.93;;;1.40;99.90;;;;;;5013377;28;20092;-74
2023/12/06 03:59:32;;;;;;;619.57;584.03;;;1.40;99.90;;;;;;4998309;28;20061;-75
2023/12/06 04:01:58;;;;;;;586.83;555.27;;;1.40;99.90;;;;;;5013032;28;20042;-75
2023/12/06 04:04:24;;;;;;;640.90;604.53;;;1.50;99.90;;;;;;5012565;28;20486;-75
2023/12/06 04:06:50;;;;;;;623.63;588.65;;;1.50;99.90;;;;;;4989003;28;20116;-74
2023/12/06 04:09:16;;;;;;;603.70;570.40;;;1.50;99.90;;;;;;4994196;28;20169;-75
2023/12/06 04:11:41;;;;;;;554.00;525.00;;;1.50;99.90;;;;;;4996547;28;20049;-75
2023/12/06 04:14:07;;;;;;;538.97;510.20;;;1.50;99.90;;;;;;5009865;28;20042;-75
2023/12/06 04:16:36;;;;;;;542.57;512.97;;;1.50;99.90;;;;;;5013542;28;20067;-75
2023/12/06 04:19:02;;;;;;;644.97;608.58;;;1.50;99.90;;;;;;5012334;28;20049;-75
2023/12/06 04:21:28;;;;;;;664.93;627.43;;;1.50;99.90;;;;;;4995750;28;20045;-74
2023/12/06 04:23:53;;;;;;;642.33;607.40;;;1.50;99.90;;;;;;4995858;28;20042;-75
2023/12/06 04:26:20;;;;;;;621.10;587.93;;;1.50;99.90;;;;;;5011198;28;20070;-75
2023/12/06 04:28:46;;;;;;;562.28;532.28;;;1.50;99.90;;;;;;5017069;28;20088;-75
2023/12/06 04:31:11;;;;;;;581.53;549.83;;;1.50;99.90;;;;;;5016648;28;20506;-75
2023/12/06 04:33:37;;;;;;;601.67;568.13;;;1.50;99.90;;;;;;5001389;28;20049;-75
2023/12/06 04:36:03;;;;;;;535.73;505.33;;;1.50;99.90;;;;;;4995584;28;20076;-75
2023/12/06 04:38:29;;;;;;;623.30;588.72;;;1.50;99.90;;;;;;5012100;28;20046;-75
2023/12/06 04:40:56;;;;;;;608.00;574.88;;;1.50;99.90;;;;;;4996101;28;20129;-75
2023/12/06 04:43:22;;;;;;;627.17;592.13;;;1.50;99.90;;;;;;4996383;28;20042;-75
2023/12/06 04:45:47;;;;;;;576.67;545.97;;;1.60;99.90;;;;;;5011432;28;20092;-74
2023/12/06 04:48:13;;;;;;;533.90;506.30;;;1.60;99.90;;;;;;5011771;28;20037;-75
2023/12/06 04:50:39;;;;;;;555.93;526.37;;;1.60;99.90;;;;;;5013896;28;20493;-75
2023/12/06 04:53:04;;;;;;;534.00;505.97;;;1.60;99.90;;;;;;4995359;28;20045;-75
2023/12/06 04:55:30;;;;;;;558.90;530.10;;;1.70;99.90;;;;;;5011383;28;20060;-76
2023/12/06 04:57:56;;;;;;;555.07;525.77;;;1.70;99.90;;;;;;4998539;28;20049;-74
2023/12/06 05:00:22;;;;;;;584.42;553.50;;;1.80;99.90;;;;;;5011823;28;20568;-75
2023/12/06 05:02:49;;;;;;;563.43;533.70;;;1.80;99.90;;;;;;5011598;28;20053;-75
2023/12/06 05:05:15;;;;;;;589.22;557.40;;;1.80;99.90;;;;;;5005497;28;20080;-75
2023/12/06 05:07:41;;;;;;;591.35;559.08;;;1.80;99.90;;;;;;5011346;28;20042;-75
2023/12/06 05:10:07;;;;;;;576.50;546.57;;;1.80;99.90;;;;;;4995429;28;20048;-75
2023/12/06 05:12:33;;;;;;;536.22;508.27;;;1.80;99.90;;;;;;4993711;28;20494;-75
2023/12/06 05:14:59;;;;;;;469.17;445.53;;;1.80;99.90;;;;;;4995487;28;20057;-75
2023/12/06 05:17:24;;;;;;;575.50;544.97;;;1.80;99.90;;;;;;4994707;28;20038;-75
2023/12/06 05:19:50;;;;;;;612.87;578.73;;;1.80;99.90;;;;;;5011557;28;20131;-75
2023/12/06 05:22:16;;;;;;;655.53;618.77;;;1.90;99.90;;;;;;5010967;28;20049;-75
2023/12/06 05:24:41;;;;;;;604.60;570.97;;;1.90;99.90;;;;;;4996470;28;20045;-75
2023/12/06 05:27:08;;;;;;;598.63;566.67;;;1.90;99.90;;;;;;5013542;28;20143;-75
2023/12/06 05:29:33;;;;;;;599.60;566.63;;;1.90;99.90;;;;;;5011355;28;20033;-75
2023/12/06 05:31:59;;;;;;;698.70;657.57;;;1.90;99.90;;;;;;5010844;28;20034;-75
2023/12/06 05:34:25;;;;;;;570.90;540.13;;;1.90;99.90;;;;;;5011464;28;20045;-75
2023/12/06 05:36:50;;;;;;;664.00;626.70;;;2.00;99.90;;;;;;5015978;28;20065;-75
2023/12/06 05:39:16;;;;;;;630.63;595.83;;;2.00;99.90;;;;;;5010149;28;20490;-75
2023/12/06 05:41:42;;;;;;;650.63;613.87;;;2.00;99.90;;;;;;4995554;28;20473;-75
2023/12/06 05:44:08;;;;;;;561.73;531.77;;;2.00;99.90;;;;;;4993450;28;20053;-75
2023/12/06 05:46:34;;;;;;;613.47;580.50;;;1.90;99.90;;;;;;5005087;28;20284;-75
2023/12/06 05:48:59;;;;;;;618.00;584.53;;;1.90;99.90;;;;;;4994315;28;20092;-75
2023/12/06 05:51:25;;;;;;;575.23;544.50;;;1.90;99.90;;;;;;4994607;28;20498;-75
2023/12/06 05:53:51;;;;;;;534.63;506.53;;;1.90;99.90;;;;;;5005296;28;20056;-75
2023/12/06 05:56:17;;;;;;;611.75;579.05;;;1.90;99.90;;;;;;5004125;28;20453;-75
2023/12/06 05:58:43;;;;;;;606.37;573.87;;;1.90;99.90;;;;;;4992894;28;20030;-75
2023/12/06 06:01:08;;;;;;;552.33;523.85;;;1.90;99.90;;;;;;4990837;28;20124;-75
2023/12/06 06:03:35;;;;;;;585.87;554.03;;;1.90;99.90;;;;;;4992161;28;20128;-75
2023/12/06 06:06:07;;;;;;;635.13;598.72;;;1.90;99.90;;;;;;4988110;28;20117;-75
2023/12/06 06:08:36;;;;;;;652.45;616.67;;;1.90;99.90;;;;;;5022215;28;20149;-75
2023/12/06 06:11:05;;;;;;;656.58;619.47;;;1.90;99.90;;;;;;5006194;28;20117;-75
2023/12/06 06:13:30;;;;;;;638.90;603.83;;;1.90;99.90;;;;;;5009534;28;20467;-74
2023/12/06 06:15:59;;;;;;;527.63;499.73;;;1.90;99.90;;;;;;5007807;28;20041;-75
2023/12/06 06:18:26;;;;;;;570.67;539.65;;;1.90;99.90;;;;;;4989687;28;20357;-75
2023/12/06 06:20:52;;;;;;;656.50;620.15;;;2.00;99.90;;;;;;5004084;28;20054;-75
2023/12/06 06:23:18;;;;;;;635.10;600.13;;;2.00;99.90;;;;;;5004150;28;20044;-75
2023/12/06 06:25:43;;;;;;;697.77;657.40;;;2.00;99.90;;;;;;5025393;28;20057;-75
2023/12/06 06:28:09;;;;;;;618.93;585.47;;;2.10;99.90;;;;;;5014604;28;20044;-75
2023/12/06 06:30:35;;;;;;;655.53;618.30;;;2.10;99.90;;;;;;5010557;28;20116;-75
2023/12/06 06:33:00;;;;;;;597.53;566.10;;;2.10;99.90;;;;;;5010547;28;20072;-75
2023/12/06 06:35:26;;;;;;;609.90;577.17;;;2.20;99.90;;;;;;5008912;28;20049;-75
2023/12/06 06:37:52;;;;;;;616.80;583.17;;;2.20;99.90;;;;;;5007697;28;20128;-75
2023/12/06 06:40:17;;;;;;;683.00;644.57;;;2.20;99.90;;;;;;5008469;28;20072;-75
2023/12/06 06:42:43;;;;;;;567.57;537.53;;;2.20;99.90;;;;;;5009345;28;20041;-75
2023/12/06 06:45:09;;;;;;;630.23;596.17;;;2.20;99.90;;;;;;4993584;28;20129;-75
2023/12/06 06:47:36;;;;;;;641.55;606.22;;;2.10;99.90;;;;;;5010242;28;20034;-75
2023/12/06 06:50:04;;;;;;;591.42;559.15;;;2.10;99.90;;;;;;4993330;28;20046;-75
2023/12/06 06:52:32;;;;;;;572.00;541.63;;;2.10;99.90;;;;;;4993247;28;20034;-75
2023/12/06 06:54:58;;;;;;;573.90;541.58;;;2.10;99.90;;;;;;5010289;28;20493;-75
2023/12/06 06:57:24;;;;;;;620.27;585.03;;;2.00;99.90;;;;;;5010151;28;20125;-75
2023/12/06 06:59:49;;;;;;;561.47;531.80;;;2.00;99.90;;;;;;5010105;28;20038;-75
2023/12/06 07:02:16;;;;;;;672.30;634.13;;;2.00;99.90;;;;;;4993652;28;20033;-75
2023/12/06 07:04:43;;;;;;;618.22;584.80;;;2.00;99.90;;;;;;5008517;28;20046;-74
2023/12/06 07:07:09;;;;;;;613.40;579.40;;;2.00;99.90;;;;;;5009989;28;20052;-75
2023/12/06 07:09:35;;;;;;;663.50;623.93;;;2.00;99.90;;;;;;4993471;28;20037;-75
2023/12/06 07:12:03;;;;;;;646.00;609.30;;;1.90;99.90;;;;;;5009916;28;20037;-75
2023/12/06 07:14:29;;;;;;;627.50;593.45;;;1.90;99.90;;;;;;4990372;28;20544;-75
2023/12/06 07:16:55;;;;;;;650.90;615.17;;;1.90;99.90;;;;;;5008926;28;20049;-75
2023/12/06 07:19:21;;;;;;;639.90;604.78;;;1.90;99.90;;;;;;5009244;28;20280;-75
2023/12/06 07:21:48;;;;;;;620.92;586.97;;;1.90;99.90;;;;;;5009235;28;20477;-75
2023/12/06 07:24:13;;;;;;;641.40;605.55;;;1.90;99.90;;;;;;5004917;28;20141;-75
2023/12/06 07:26:39;;;;;;;593.23;561.80;;;1.90;99.90;;;;;;4992907;28;20133;-75
2023/12/06 07:29:08;;;;;;;594.13;561.00;;;1.90;99.90;;;;;;5009574;28;20034;-74
2023/12/06 07:31:34;;;;;;;598.00;565.15;;;1.90;99.90;;;;;;4989658;28;20499;-75
2023/12/06 07:34:00;;;;;;;477.67;452.60;;;1.90;99.90;;;;;;5025438;28;20087;-74
2023/12/06 07:36:25;;;;;;;583.03;551.27;;;1.90;99.90;;;;;;5008778;28;20073;-74
2023/12/06 07:38:51;;;;;;;666.57;628.80;;;1.90;99.90;;;;;;5009317;28;20038;-74
2023/12/06 07:41:17;;;;;;;616.27;581.87;;;1.90;99.90;;;;;;5013563;28;20037;-74
2023/12/06 07:43:43;;;;;;;678.23;640.40;;;1.90;99.90;;;;;;4991476;28;20041;-74
2023/12/06 07:46:08;;;;;;;620.57;586.47;;;1.90;99.90;;;;;;5009335;28;20061;-74
2023/12/06 07:48:34;;;;;;;615.83;581.10;;;1.90;99.90;;;;;;5008550;28;20409;-74
2023/12/06 07:51:01;;;;;;;669.80;632.37;;;1.90;99.90;;;;;;4996255;28;20069;-74
2023/12/06 07:53:26;;;;;;;591.85;559.92;;;2.00;99.90;;;;;;4996130;28;20045;-74
2023/12/06 07:55:58;;;;;;;608.10;575.80;;;2.00;99.90;;;;;;4996438;28;20504;-74
2023/12/06 07:58:24;;;;;;;579.17;548.17;;;2.00;99.90;;;;;;4994178;28;20284;-74
2023/12/06 08:00:50;;;;;;;650.55;612.78;;;2.10;99.90;;;;;;4996402;28;20042;-74
2023/12/06 08:03:21;;;;;;;635.93;600.53;;;2.10;99.90;;;;;;5012030;28;20042;-74
2023/12/06 08:05:46;;;;;;;558.42;527.65;;;2.10;99.90;;;;;;5003908;28;20054;-74
2023/12/06 08:08:13;;;;;;;545.10;516.27;;;2.10;99.90;;;;;;5012010;28;20501;-74
2023/12/06 08:10:42;;;;;;;572.45;541.67;;;2.10;99.90;;;;;;5012911;28;20037;-74
2023/12/06 08:13:08;;;;;;;593.95;561.95;;;2.10;99.90;;;;;;4994844;28;20463;-75
2023/12/06 08:15:33;;;;;;;645.10;608.77;;;2.20;99.90;;;;;;4996135;28;20124;-74
2023/12/06 08:17:59;;;;;;;613.97;580.73;;;2.20;99.90;;;;;;5012530;28;20548;-74
2023/12/06 08:20:25;;;;;;;580.10;548.57;;;2.20;99.90;;;;;;5012586;28;20066;-74
2023/12/06 08:22:50;;;;;;;548.97;520.17;;;2.20;99.90;;;;;;5011965;28;20124;-74
2023/12/06 08:25:16;;;;;;;563.03;533.17;;;2.20;99.90;;;;;;5016050;28;20490;-74
2023/12/06 08:27:43;;;;;;;605.83;571.57;;;2.20;99.90;;;;;;4994377;28;20069;-74
2023/12/06 08:30:09;;;;;;;571.80;541.55;;;2.20;99.90;;;;;;4992562;28;20088;-74
2023/12/06 08:32:34;;;;;;;600.67;567.13;;;2.20;99.90;;;;;;5011846;28;20084;-74
2023/12/06 08:35:03;;;;;;;620.77;587.23;;;2.30;99.90;;;;;;5012871;28;20076;-74
2023/12/06 08:37:28;;;;;;;635.30;599.97;;;2.30;99.90;;;;;;4996089;28;20045;-74
2023/12/06 08:39:54;;;;;;;608.03;575.07;;;2.30;99.90;;;;;;5011920;28;20405;-73
2023/12/06 08:42:20;;;;;;;613.43;579.50;;;2.30;99.90;;;;;;5001396;28;20042;-74
2023/12/06 08:44:46;;;;;;;656.20;618.73;;;2.30;99.90;;;;;;4995761;28;20115;-74
2023/12/06 08:47:12;;;;;;;633.03;597.63;;;2.30;99.90;;;;;;4996507;28;20410;-74
2023/12/06 08:49:38;;;;;;;604.33;571.00;;;2.40;99.90;;;;;;5002764;28;20049;-73
2023/12/06 08:52:06;;;;;;;614.72;581.10;;;2.40;99.90;;;;;;4992171;28;20029;-74
2023/12/06 08:54:32;;;;;;;657.90;620.83;;;2.40;99.90;;;;;;5019108;28;20053;-74
2023/12/06 08:56:58;;;;;;;679.65;641.58;;;2.40;99.90;;;;;;5011772;28;20121;-74
2023/12/06 08:59:24;;;;;;;569.43;538.50;;;2.40;99.90;;;;;;4995112;28;20110;-74
2023/12/06 09:01:50;;;;;;;580.17;549.20;;;2.40;99.90;;;;;;5012121;28;20041;-74
2023/12/06 09:04:15;;;;;;;630.33;595.93;;;2.40;99.90;;;;;;5010747;28;20116;-74
2023/12/06 09:06:41;;;;;;;608.03;574.83;;;2.50;99.90;;;;;;4986108;28;20038;-74
2023/12/06 09:09:08;;;;;;;675.00;636.70;;;2.50;99.90;;;;;;5011593;28;20065;-74
2023/12/06 09:11:33;;;;;;;619.00;584.15;;;2.50;99.90;;;;;;4995418;28;20446;-74
2023/12/06 09:13:59;;;;;;;672.43;633.83;;;2.50;99.90;;;;;;5010397;28;20077;-75
2023/12/06 09:16:25;;;;;;;625.23;591.20;;;2.50;99.90;;;;;;4983517;28;20402;-74
2023/12/06 09:18:50;;;;;;;644.83;608.53;;;2.50;99.90;;;;;;5010444;28;20037;-73
2023/12/06 09:21:16;;;;;;;665.47;627.80;;;2.50;99.90;;;;;;4998565;28;20037;-74
2023/12/06 09:23:42;;;;;;;619.60;586.27;;;2.60;99.90;;;;;;5014898;28;20050;-74
2023/12/06 09:26:09;;;;;;;578.10;546.83;;;2.60;99.90;;;;;;4994959;28;20109;-74
2023/12/06 09:28:36;;;;;;;667.25;630.28;;;2.70;99.90;;;;;;5028504;28;20042;-74
2023/12/06 09:31:03;;;;;;;641.53;606.03;;;2.70;99.90;;;;;;5001794;28;20034;-74
2023/12/06 09:33:29;;;;;;;543.65;515.38;;;2.70;99.90;;;;;;4995330;28;20030;-74
2023/12/06 09:35:55;;;;;;;634.60;600.03;;;2.70;99.90;;;;;;5011628;28;20050;-74
2023/12/06 09:38:21;;;;;;;551.60;522.13;;;2.70;99.90;;;;;;4984033;28;20056;-74
2023/12/06 09:40:47;;;;;;;654.93;618.17;;;2.80;99.90;;;;;;5011877;28;20045;-74
2023/12/06 09:43:13;;;;;;;633.67;599.83;;;2.80;99.90;;;;;;5015987;28;20084;-74
2023/12/06 09:45:40;;;;;;;604.08;571.50;;;2.80;99.90;;;;;;5013998;28;20037;-74
2023/12/06 09:48:06;;;;;;;586.67;555.10;;;2.80;99.90;;;;;;5010098;28;20042;-74
2023/12/06 09:50:32;;;;;;;602.38;569.58;;;2.80;99.90;;;;;;4998762;28;20044;-74
2023/12/06 09:52:58;;;;;;;696.23;653.97;;;2.90;99.90;;;;;;5001192;28;20504;-74
2023/12/06 09:55:24;;;;;;;597.23;565.73;;;2.90;99.90;;;;;;5012048;28;20049;-74
2023/12/06 09:57:51;;;;;;;660.22;623.13;;;2.90;99.90;;;;;;4994037;28;20124;-75
2023/12/06 10:00:17;;;;;;;611.38;578.00;;;3.00;99.90;;;;;;5010027;28;20088;-74
2023/12/06 10:03:02;;;;;;;645.83;610.05;;;3.00;99.90;;;;;;5010767;28;20049;-74
2023/12/06 10:05:28;;;;;;;612.83;580.72;;;3.10;99.90;;;;;;4993649;28;20085;-74
2023/12/06 10:07:53;;;;;;;639.87;604.63;;;3.10;99.90;;;;;;5009553;28;20065;-75
2023/12/06 10:10:21;;;;;;;661.77;624.53;;;3.10;99.90;;;;;;5009965;28;20528;-74
2023/12/06 10:12:55;;;;;;;617.05;583.15;;;3.10;99.90;;;;;;4992574;28;20448;-74
2023/12/06 10:15:22;;;;;;;624.65;591.05;;;3.10;99.90;;;;;;4994264;28;20041;-74
2023/12/06 10:17:48;;;;;;;663.03;625.30;;;3.10;99.90;;;;;;5009289;28;20049;-74
2023/12/06 10:20:15;;;;;;;644.80;609.25;;;3.10;99.90;;;;;;5009680;28;20128;-74
2023/12/06 10:22:41;;;;;;;669.33;631.38;;;3.10;99.90;;;;;;5009232;28;20064;-75
2023/12/06 10:25:10;;;;;;;624.55;590.45;;;3.10;99.90;;;;;;5010313;28;20042;-75
2023/12/06 10:27:36;;;;;;;666.30;629.38;;;3.10;99.90;;;;;;5015374;28;20054;-75
2023/12/06 10:30:04;;;;;;;701.88;661.15;;;3.10;99.90;;;;;;5016810;28;20510;-74
2023/12/06 10:32:31;;;;;;;608.92;576.97;;;3.10;99.90;;;;;;4993740;28;20215;-74
2023/12/06 10:35:02;;;;;;;604.67;570.92;;;3.10;99.90;;;;;;5010240;28;20054;-75
2023/12/06 10:37:28;;;;;;;557.25;528.85;;;3.20;99.90;;;;;;5009671;28;20056;-75
2023/12/06 10:40:10;;;;;;;662.15;624.88;;;3.20;99.90;;;;;;5009626;28;20196;-75
2023/12/06 10:42:38;;;;;;;578.78;549.50;;;3.30;99.90;;;;;;5010075;28;20041;-75
2023/12/06 10:45:05;;;;;;;603.72;572.47;;;3.30;99.90;;;;;;4992200;28;20045;-75
2023/12/06 10:47:31;;;;;;;635.72;600.80;;;3.30;99.90;;;;;;5010281;28;20042;-74
2023/12/06 10:49:58;;;;;;;654.60;619.28;;;3.30;99.90;;;;;;5009073;28;20046;-74
2023/12/06 10:52:24;;;;;;;622.33;588.63;;;3.40;99.90;;;;;;5010086;28;20057;-74
2023/12/06 10:54:50;;;;;;;652.00;616.03;;;3.40;99.90;;;;;;5006502;28;20045;-74
2023/12/06 10:57:18;;;;;;;703.50;664.33;;;3.50;99.90;;;;;;4999569;28;20092;-74
2023/12/06 10:59:45;;;;;;;712.20;670.75;;;3.50;99.90;;;;;;4993164;28;20073;-74
2023/12/06 11:02:12;;;;;;;791.55;743.03;;;3.50;99.90;;;;;;5013615;28;20103;-74
2023/12/06 11:04:50;;;;;;;763.83;717.85;;;3.50;99.90;;;;;;5006379;28;20049;-74
2023/12/06 11:07:28;;;;;;;682.40;643.95;;;3.60;99.90;;;;;;4988884;28;20060;-75
2023/12/06 11:10:03;;;;;;;778.80;730.10;;;3.60;99.90;;;;;;5009923;28;20041;-75
2023/12/06 11:12:46;;;;;;;750.67;705.90;;;3.60;99.90;;;;;;5009332;28;20053;-75
2023/12/06 11:15:34;;;;;;;762.10;715.95;;;3.60;99.90;;;;;;5010213;28;20038;-74
2023/12/06 11:18:20;;;;;;;756.15;711.63;;;3.60;99.90;;;;;;5025013;28;20124;-75
2023/12/06 11:20:46;;;;;;;674.10;635.15;;;3.70;99.90;;;;;;4992711;28;20121;-74
2023/12/06 11:23:13;;;;;;;758.03;712.03;;;3.70;99.90;;;;;;5008655;28;20509;-74
2023/12/06 11:25:48;;;;;;;833.75;779.42;;;3.70;99.90;;;;;;5019925;28;20187;-74
2023/12/06 11:28:20;;;;;;;731.95;689.45;;;3.80;99.90;;;;;;5019316;28;20045;-74
2023/12/06 11:30:50;;;;;;;686.50;646.88;;;3.80;99.90;;;;;;4998456;28;20030;-74
2023/12/06 11:33:17;;;;;;;791.72;743.20;;;3.80;99.90;;;;;;5012939;28;20057;-75
2023/12/06 11:35:44;;;;;;;795.00;745.38;;;3.80;99.90;;;;;;4996468;28;20045;-74
2023/12/06 11:38:09;;;;;;;755.53;709.13;;;3.80;99.90;;;;;;5012845;28;20037;-75
2023/12/06 11:40:35;;;;;;;721.20;678.87;;;3.90;99.90;;;;;;5012913;28;20053;-75
2023/12/06 11:43:02;;;;;;;716.17;674.93;;;3.90;99.90;;;;;;5011645;28;20112;-75
2023/12/06 11:45:29;;;;;;;745.70;701.65;;;3.90;99.90;;;;;;5013076;28;20049;-74
2023/12/06 11:48:00;;;;;;;704.72;662.30;;;3.90;99.90;;;;;;5014075;28;20045;-74
2023/12/06 11:50:26;;;;;;;797.97;749.63;;;3.90;99.90;;;;;;4996297;28;20041;-74
2023/12/06 11:52:55;;;;;;;778.72;731.60;;;4.00;99.90;;;;;;5013683;28;20402;-75
2023/12/06 11:55:23;;;;;;;745.25;701.03;;;4.00;99.90;;;;;;5012050;28;20041;-74
2023/12/06 11:58:22;;;;;;;753.53;709.00;;;4.00;99.90;;;;;;5013289;28;20046;-75
2023/12/06 12:00:54;;;;;;;812.13;761.20;;;4.00;99.90;;;;;;4978774;28;20049;-75
2023/12/06 12:03:20;;;;;;;702.45;661.95;;;4.00;99.90;;;;;;5015424;28;20052;-74
2023/12/06 12:05:47;;;;;;;759.38;714.03;;;4.00;99.90;;;;;;4992793;28;20100;-74
2023/12/06 12:08:13;;;;;;;774.92;726.35;;;4.00;99.90;;;;;;4997973;28;20034;-75
2023/12/06 12:10:40;;;;;;;811.13;758.72;;;3.90;99.90;;;;;;5013550;28;20057;-74
2023/12/06 12:13:16;;;;;;;709.25;667.08;;;3.90;99.90;;;;;;4996401;28;20068;-75
2023/12/06 12:15:50;;;;;;;792.17;742.75;;;3.90;99.90;;;;;;5011954;28;20053;-74